createdAt,value
2022-11-30T00:00:21.012Z,5.00
2022-11-30T00:02:49.729Z,4.90
2022-11-30T00:05:16.400Z,4.90
2022-11-30T00:07:42.998Z,4.90
2022-11-30T00:10:09.777Z,4.90
2022-11-30T00:12:36.330Z,4.90
2022-11-30T00:15:03.066Z,4.80
2022-11-30T00:17:29.763Z,4.90
2022-11-30T00:19:56.276Z,4.80
2022-11-30T00:22:22.804Z,4.80
2022-11-30T00:24:49.548Z,4.90
2022-11-30T00:27:16.297Z,4.80
2022-11-30T00:29:42.857Z,4.70
2022-11-30T00:32:09.378Z,4.70
2022-11-30T00:34:35.949Z,4.70
2022-11-30T00:37:02.474Z,4.70
2022-11-30T00:39:35.183Z,4.60
2022-11-30T00:42:02.108Z,4.60
2022-11-30T00:44:28.638Z,4.60
2022-11-30T00:46:55.296Z,4.60
2022-11-30T00:49:21.828Z,4.60
2022-11-30T00:51:48.377Z,4.60
2022-11-30T00:54:14.900Z,4.60
2022-11-30T00:56:41.556Z,4.60
2022-11-30T00:59:08.122Z,4.60
2022-11-30T01:01:35.696Z,4.60
2022-11-30T01:04:02.782Z,4.60
2022-11-30T01:06:29.363Z,4.60
2022-11-30T01:08:55.932Z,4.60
2022-11-30T01:11:30.085Z,4.60
2022-11-30T01:13:57.698Z,4.70
2022-11-30T01:16:26.774Z,4.70
2022-11-30T01:18:53.529Z,4.70
2022-11-30T01:21:21.696Z,4.70
2022-11-30T01:23:48.693Z,4.70
2022-11-30T01:26:15.966Z,4.70
2022-11-30T01:28:44.262Z,4.70
2022-11-30T01:31:12.967Z,4.80
2022-11-30T01:33:40.090Z,4.70
2022-11-30T01:36:09.342Z,4.70
2022-11-30T01:38:37.028Z,4.70
2022-11-30T01:41:04.087Z,4.70
2022-11-30T01:43:47.621Z,4.70
2022-11-30T01:46:26.242Z,4.70
2022-11-30T01:48:59.383Z,4.70
2022-11-30T01:51:28.424Z,4.70
2022-11-30T01:53:55.006Z,4.70
2022-11-30T01:56:21.587Z,4.70
2022-11-30T01:58:48.320Z,4.70
2022-11-30T02:01:14.850Z,4.70
2022-11-30T02:03:45.679Z,4.70
2022-11-30T02:06:12.342Z,4.70
2022-11-30T02:08:39.162Z,4.70
2022-11-30T02:11:06.777Z,4.80
2022-11-30T02:13:45.274Z,4.80
2022-11-30T02:16:11.875Z,4.90
2022-11-30T02:18:44.977Z,4.90
2022-11-30T02:21:11.549Z,4.90
2022-11-30T02:23:41.419Z,4.90
2022-11-30T02:26:10.065Z,4.80
2022-11-30T02:28:56.537Z,4.80
2022-11-30T02:31:25.304Z,4.80
2022-11-30T02:33:52.924Z,4.70
2022-11-30T02:36:20.837Z,4.70
2022-11-30T02:38:47.423Z,4.70
2022-11-30T02:41:13.976Z,4.80
2022-11-30T02:43:40.675Z,4.80
2022-11-30T02:46:07.401Z,4.80
2022-11-30T02:48:53.305Z,4.80
2022-11-30T02:51:21.435Z,4.80
2022-11-30T02:53:48.612Z,4.80
2022-11-30T02:56:15.172Z,4.80
2022-11-30T02:58:41.789Z,4.80
2022-11-30T03:01:08.519Z,4.90
2022-11-30T03:03:35.115Z,4.90
2022-11-30T03:06:01.722Z,4.90
2022-11-30T03:08:28.247Z,4.80
2022-11-30T03:10:54.809Z,4.80
2022-11-30T03:13:21.418Z,4.80
2022-11-30T03:15:48.091Z,4.80
2022-11-30T03:18:14.674Z,4.80
2022-11-30T03:20:42.465Z,4.80
2022-11-30T03:23:09.454Z,4.80
2022-11-30T03:25:36.026Z,4.80
2022-11-30T03:28:02.764Z,4.80
2022-11-30T03:30:29.322Z,4.80
2022-11-30T03:32:55.888Z,4.80
2022-11-30T03:35:22.524Z,4.70
2022-11-30T03:37:49.160Z,4.70
2022-11-30T03:40:15.836Z,4.70
2022-11-30T03:42:42.829Z,4.70
2022-11-30T03:45:09.526Z,4.70
2022-11-30T03:47:36.781Z,4.70
2022-11-30T03:50:03.569Z,4.70
2022-11-30T03:52:30.103Z,4.70
2022-11-30T03:54:56.726Z,4.60
2022-11-30T03:57:23.269Z,4.60
2022-11-30T03:59:49.819Z,4.60
2022-11-30T04:02:16.363Z,4.60
2022-11-30T04:04:42.879Z,4.60
2022-11-30T04:07:09.516Z,4.60
2022-11-30T04:09:36.018Z,4.60
2022-11-30T04:12:02.568Z,4.60
2022-11-30T04:14:29.125Z,4.60
2022-11-30T04:16:55.705Z,4.50
2022-11-30T04:19:22.505Z,4.60
2022-11-30T04:21:49.296Z,4.60
2022-11-30T04:24:15.813Z,4.60
2022-11-30T04:26:42.408Z,4.60
2022-11-30T04:29:08.969Z,4.60
2022-11-30T04:31:35.591Z,4.50
2022-11-30T04:34:05.056Z,4.60
2022-11-30T04:36:31.606Z,4.40
2022-11-30T04:38:58.154Z,4.50
2022-11-30T04:41:25.669Z,4.50
2022-11-30T04:43:52.188Z,4.40
2022-11-30T04:46:18.894Z,4.40
2022-11-30T04:48:45.519Z,4.40
2022-11-30T04:51:12.184Z,4.40
2022-11-30T04:53:39.024Z,4.40
2022-11-30T04:56:06.897Z,4.40
2022-11-30T04:58:33.522Z,4.40
2022-11-30T05:01:00.223Z,4.30
2022-11-30T05:03:26.750Z,4.30
2022-11-30T05:05:53.297Z,4.40
2022-11-30T05:08:20.311Z,4.40
2022-11-30T05:10:53.140Z,4.50
2022-11-30T05:13:20.566Z,4.40
2022-11-30T05:15:47.233Z,4.40
2022-11-30T05:18:15.749Z,4.40
2022-11-30T05:20:46.496Z,4.40
2022-11-30T05:23:13.022Z,4.30
2022-11-30T05:25:39.544Z,4.20
2022-11-30T05:28:06.199Z,4.20
2022-11-30T05:30:32.770Z,4.20
2022-11-30T05:32:59.345Z,4.20
2022-11-30T05:35:25.896Z,4.20
2022-11-30T05:37:52.551Z,4.30
2022-11-30T05:40:19.157Z,4.30
2022-11-30T05:42:45.669Z,4.30
2022-11-30T05:45:12.293Z,4.30
2022-11-30T05:47:38.876Z,4.30
2022-11-30T05:50:05.805Z,4.40
2022-11-30T05:52:32.364Z,4.30
2022-11-30T05:54:59.422Z,4.30
2022-11-30T05:57:25.997Z,4.30
2022-11-30T05:59:52.590Z,4.30
2022-11-30T06:02:23.692Z,4.30
2022-11-30T06:04:53.224Z,4.30
2022-11-30T06:07:19.778Z,4.20
2022-11-30T06:09:46.362Z,4.20
2022-11-30T06:12:12.937Z,4.20
2022-11-30T06:14:39.656Z,4.20
2022-11-30T06:17:06.461Z,4.20
2022-11-30T06:19:32.998Z,4.20
2022-11-30T06:21:59.641Z,4.20
2022-11-30T06:24:26.155Z,4.20
2022-11-30T06:26:52.677Z,4.20
2022-11-30T06:29:19.253Z,4.20
2022-11-30T06:31:45.972Z,4.20
2022-11-30T06:34:12.508Z,4.20
2022-11-30T06:36:39.076Z,4.20
2022-11-30T06:39:05.639Z,4.20
2022-11-30T06:41:32.207Z,4.10
2022-11-30T06:43:58.721Z,4.20
2022-11-30T06:46:26.862Z,4.10
2022-11-30T06:48:53.423Z,4.10
2022-11-30T06:51:19.992Z,4.10
2022-11-30T06:53:46.638Z,4.10
2022-11-30T06:56:15.530Z,4.10
2022-11-30T06:58:42.059Z,4.10
2022-11-30T07:01:09.953Z,4.10
2022-11-30T07:03:36.904Z,4.00
2022-11-30T07:06:07.995Z,4.00
2022-11-30T07:08:34.577Z,4.00
2022-11-30T07:11:03.009Z,4.00
2022-11-30T07:13:30.064Z,4.00
2022-11-30T07:15:56.943Z,4.10
2022-11-30T07:18:28.495Z,4.10
2022-11-30T07:21:01.505Z,4.10
2022-11-30T07:23:50.793Z,4.10
2022-11-30T07:26:21.193Z,4.20
2022-11-30T07:30:35.350Z,4.20
2022-11-30T07:31:50.633Z,4.30
2022-11-30T07:34:17.523Z,4.30
2022-11-30T07:36:44.244Z,4.30
2022-11-30T07:39:13.762Z,4.30
2022-11-30T07:41:40.766Z,4.30
2022-11-30T07:44:08.272Z,4.30
2022-11-30T07:46:52.422Z,4.30
2022-11-30T07:49:21.285Z,4.30
2022-11-30T07:51:55.509Z,4.30
2022-11-30T07:54:28.863Z,4.40
2022-11-30T07:57:00.438Z,4.40
2022-11-30T07:59:26.995Z,4.50
2022-11-30T08:01:56.341Z,4.50
2022-11-30T08:04:27.229Z,4.50
2022-11-30T08:06:59.967Z,4.60
2022-11-30T08:09:26.506Z,4.60
2022-11-30T08:11:53.061Z,4.60
2022-11-30T08:14:25.741Z,4.60
2022-11-30T08:16:52.336Z,4.60
2022-11-30T08:19:19.776Z,4.50
2022-11-30T08:21:48.302Z,4.50
2022-11-30T08:24:15.182Z,4.50
2022-11-30T08:26:44.301Z,4.40
2022-11-30T08:29:17.624Z,4.30
2022-11-30T08:31:50.854Z,4.40
2022-11-30T08:34:20.679Z,4.30
2022-11-30T08:36:51.978Z,4.20
2022-11-30T08:39:18.664Z,4.30
2022-11-30T08:41:46.344Z,4.30
2022-11-30T08:44:20.518Z,4.30
2022-11-30T08:46:51.843Z,4.30
2022-11-30T08:49:22.030Z,4.30
2022-11-30T08:54:39.000Z,4.40
2022-11-30T08:57:05.520Z,4.60
2022-11-30T08:59:32.115Z,4.60
2022-11-30T09:01:58.766Z,4.60
2022-11-30T09:04:27.887Z,4.50
2022-11-30T09:07:00.254Z,4.60
2022-11-30T09:09:37.295Z,4.60
2022-11-30T09:12:08.853Z,4.50
2022-11-30T09:14:55.774Z,4.50
2022-11-30T09:17:24.051Z,4.50
2022-11-30T09:19:55.955Z,4.50
2022-11-30T09:22:22.558Z,4.50
2022-11-30T09:24:56.757Z,4.50
2022-11-30T09:27:24.227Z,4.50
2022-11-30T09:29:50.763Z,4.50
2022-11-30T09:32:19.754Z,4.50
2022-11-30T09:34:50.753Z,4.50
2022-11-30T09:37:22.011Z,4.50
2022-11-30T09:39:48.534Z,4.50
2022-11-30T09:42:32.592Z,4.50
2022-11-30T09:45:04.510Z,4.50
2022-11-30T09:47:39.122Z,4.50
2022-11-30T09:50:16.318Z,4.60
2022-11-30T09:52:54.768Z,4.50
2022-11-30T09:55:26.376Z,4.60
2022-11-30T09:57:57.196Z,4.60
2022-11-30T10:00:24.519Z,4.60
2022-11-30T10:02:52.410Z,4.70
2022-11-30T10:05:23.242Z,4.70
2022-11-30T10:07:56.018Z,4.80
2022-11-30T10:10:43.263Z,4.80
2022-11-30T10:13:28.717Z,4.80
2022-11-30T10:16:14.259Z,4.80
2022-11-30T10:18:42.838Z,4.90
2022-11-30T10:21:32.856Z,5.00
2022-11-30T10:24:02.508Z,5.00
2022-11-30T10:26:35.675Z,5.00
2022-11-30T10:29:06.966Z,5.10
2022-11-30T10:31:34.902Z,5.10
2022-11-30T10:34:10.358Z,5.20
2022-11-30T10:36:39.128Z,5.10
2022-11-30T10:39:14.384Z,5.10
2022-11-30T10:41:46.366Z,5.20
2022-11-30T10:44:19.765Z,5.30
2022-11-30T10:46:52.562Z,5.20
2022-11-30T10:49:19.484Z,5.30
2022-11-30T10:51:47.349Z,5.20
2022-11-30T10:54:15.908Z,5.20
2022-11-30T10:56:42.708Z,5.30
2022-11-30T10:59:12.786Z,5.40
2022-11-30T11:01:40.643Z,5.50
2022-11-30T11:04:08.522Z,5.40
2022-11-30T11:06:35.347Z,5.40
2022-11-30T11:09:25.040Z,5.30
2022-11-30T11:11:53.554Z,5.30
2022-11-30T11:14:24.143Z,5.20
2022-11-30T11:17:01.016Z,5.20
2022-11-30T11:19:30.593Z,5.20
2022-11-30T11:21:57.301Z,5.30
2022-11-30T11:24:27.418Z,5.40
2022-11-30T11:26:54.878Z,5.40
2022-11-30T11:29:31.400Z,5.40
2022-11-30T11:32:13.426Z,5.50
2022-11-30T11:34:40.009Z,5.50
2022-11-30T11:37:26.360Z,5.50
2022-11-30T11:39:59.072Z,5.40
2022-11-30T11:42:27.167Z,5.40
2022-11-30T11:44:56.011Z,5.30
2022-11-30T11:47:43.416Z,5.30
2022-11-30T11:50:13.100Z,5.20
2022-11-30T11:52:42.191Z,5.30
2022-11-30T11:55:14.488Z,5.30
2022-11-30T11:57:51.959Z,5.30
2022-11-30T12:00:19.503Z,5.30
2022-11-30T12:02:49.108Z,5.30
2022-11-30T12:05:17.693Z,5.20
2022-11-30T12:07:59.709Z,5.20
2022-11-30T12:10:53.697Z,5.20
2022-11-30T12:13:22.378Z,5.20
2022-11-30T12:15:54.886Z,5.20
2022-11-30T12:18:26.576Z,5.20
2022-11-30T12:21:01.105Z,5.30
2022-11-30T12:23:40.617Z,5.20
2022-11-30T12:26:19.300Z,5.20
2022-11-30T12:29:05.361Z,5.30
2022-11-30T12:31:37.977Z,5.40
2022-11-30T12:34:12.396Z,5.40
2022-11-30T12:36:55.061Z,5.40
2022-11-30T12:39:33.592Z,5.40
2022-11-30T12:42:06.561Z,5.40
2022-11-30T12:44:51.648Z,5.30
2022-11-30T12:47:37.987Z,5.30
2022-11-30T12:50:19.199Z,5.30
2022-11-30T12:52:59.733Z,5.30
2022-11-30T12:55:38.348Z,5.30
2022-11-30T12:58:10.836Z,5.30
2022-11-30T13:01:00.930Z,5.30
2022-11-30T13:03:46.026Z,5.30
2022-11-30T13:06:26.214Z,5.30
2022-11-30T13:09:02.836Z,5.30
2022-11-30T13:11:43.739Z,5.30
2022-11-30T13:14:31.680Z,5.30
2022-11-30T13:17:06.300Z,5.30
2022-11-30T13:19:56.094Z,5.40
2022-11-30T13:22:43.541Z,5.40
2022-11-30T13:26:05.769Z,5.40
2022-11-30T13:28:35.185Z,5.40
2022-11-30T13:31:08.957Z,5.30
2022-11-30T13:33:48.355Z,5.30
2022-11-30T13:36:36.897Z,5.20
2022-11-30T13:39:16.656Z,5.20
2022-11-30T13:41:45.394Z,5.20
2022-11-30T13:44:30.626Z,5.20
2022-11-30T13:46:57.485Z,5.20
2022-11-30T13:49:24.172Z,5.10
2022-11-30T13:52:20.048Z,5.10
2022-11-30T13:54:42.524Z,5.10
2022-11-30T13:57:24.384Z,5.00
2022-11-30T13:59:52.050Z,4.90
2022-11-30T14:02:31.209Z,4.80
2022-11-30T14:05:15.839Z,4.70
2022-11-30T14:07:46.504Z,4.70
2022-11-30T14:10:31.433Z,4.70
2022-11-30T14:12:58.631Z,4.50
2022-11-30T14:15:51.993Z,4.60
2022-11-30T14:18:24.505Z,4.50
2022-11-30T14:21:00.283Z,4.40
2022-11-30T14:23:30.202Z,4.40
2022-11-30T14:25:59.460Z,4.30
2022-11-30T14:28:46.254Z,4.20
2022-11-30T14:31:17.722Z,4.10
2022-11-30T14:33:54.296Z,4.00
2022-11-30T14:36:21.872Z,4.00
2022-11-30T14:38:48.421Z,3.90
2022-11-30T14:41:19.346Z,3.90
2022-11-30T14:44:04.451Z,3.80
2022-11-30T14:46:31.303Z,3.80
2022-11-30T14:49:12.574Z,3.70
2022-11-30T14:51:39.289Z,3.60
2022-11-30T14:54:08.786Z,3.60
2022-11-30T14:56:40.294Z,3.60
2022-11-30T14:59:12.984Z,3.50
2022-11-30T15:01:40.523Z,3.50
2022-11-30T15:04:11.228Z,3.40
2022-11-30T15:06:39.079Z,3.40
2022-11-30T15:09:13.040Z,3.30
2022-11-30T15:11:43.255Z,3.30
2022-11-30T15:14:10.631Z,3.20
2022-11-30T15:16:37.229Z,3.20
2022-11-30T15:19:36.245Z,3.20
2022-11-30T15:22:02.804Z,3.10
2022-11-30T15:24:29.818Z,3.10
2022-11-30T15:27:00.678Z,3.00
2022-11-30T15:29:32.518Z,3.00
2022-11-30T15:32:00.331Z,2.90
2022-11-30T15:34:35.819Z,3.00
2022-11-30T15:37:02.752Z,2.90
2022-11-30T15:39:29.546Z,2.80
2022-11-30T15:41:58.095Z,2.80
2022-11-30T15:44:26.247Z,2.80
2022-11-30T15:46:57.301Z,2.70
2022-11-30T15:49:25.534Z,2.60
2022-11-30T15:52:07.662Z,2.60
2022-11-30T15:54:43.137Z,2.50
2022-11-30T15:57:09.925Z,2.40
2022-11-30T15:59:36.482Z,2.30
2022-11-30T16:02:14.158Z,2.30
2022-11-30T16:05:05.169Z,2.20
2022-11-30T16:07:34.319Z,2.10
2022-11-30T16:10:13.784Z,2.10
2022-11-30T16:12:41.928Z,2.20
2022-11-30T16:15:16.834Z,2.30
2022-11-30T16:17:43.375Z,2.30
2022-11-30T16:20:13.615Z,2.20
2022-11-30T16:22:44.354Z,2.20
2022-11-30T16:25:12.534Z,2.00
2022-11-30T16:27:39.060Z,2.10
2022-11-30T16:30:05.945Z,2.10
2022-11-30T16:32:32.549Z,1.90
2022-11-30T16:34:59.204Z,1.90
2022-11-30T16:37:25.793Z,1.90
2022-11-30T16:39:52.345Z,1.80
2022-11-30T16:42:18.874Z,1.70
2022-11-30T16:44:45.416Z,1.50
2022-11-30T16:47:11.953Z,1.40
2022-11-30T16:49:38.514Z,1.40
2022-11-30T16:52:05.217Z,1.40
2022-11-30T16:54:32.028Z,1.50
2022-11-30T16:56:58.722Z,1.40
2022-11-30T16:59:25.423Z,1.40
2022-11-30T17:01:53.239Z,1.40
2022-11-30T17:04:21.383Z,1.40
2022-11-30T17:06:50.535Z,1.30
2022-11-30T17:09:19.155Z,1.20
2022-11-30T17:11:48.728Z,1.20
2022-11-30T17:14:15.331Z,1.20
2022-11-30T17:16:42.207Z,1.10
2022-11-30T17:19:09.507Z,1.10
2022-11-30T17:21:36.900Z,1.10
2022-11-30T17:24:04.161Z,1.10
2022-11-30T17:26:30.869Z,1.10
2022-11-30T17:28:57.519Z,1.20
2022-11-30T17:31:24.214Z,1.10
2022-11-30T17:33:50.842Z,1.10
2022-11-30T17:36:18.854Z,1.00
2022-11-30T17:38:46.622Z,1.10
2022-11-30T17:41:18.899Z,1.00
2022-11-30T17:43:46.579Z,1.00
2022-11-30T17:46:15.705Z,0.90
2022-11-30T17:48:43.092Z,0.90
2022-11-30T17:51:10.052Z,0.90
2022-11-30T17:53:39.781Z,0.90
2022-11-30T17:56:10.175Z,1.00
2022-11-30T17:58:43.800Z,1.00
2022-11-30T18:01:18.437Z,1.20
2022-11-30T18:03:45.470Z,1.30
2022-11-30T18:06:12.245Z,1.30
2022-11-30T18:08:40.091Z,1.30
2022-11-30T18:11:11.356Z,1.40
2022-11-30T18:13:38.427Z,1.30
2022-11-30T18:16:11.386Z,1.30
2022-11-30T18:18:41.587Z,1.30
2022-11-30T18:21:11.857Z,1.30
2022-11-30T18:23:38.536Z,1.30
2022-11-30T18:26:06.228Z,1.40
2022-11-30T18:28:33.066Z,1.50
2022-11-30T18:30:59.783Z,1.50
2022-11-30T18:33:26.398Z,1.50
2022-11-30T18:35:56.857Z,1.50
2022-11-30T18:38:24.057Z,1.60
2022-11-30T18:40:50.654Z,1.70
2022-11-30T18:43:17.294Z,1.80
2022-11-30T18:45:44.001Z,1.90
2022-11-30T18:48:10.762Z,2.00
2022-11-30T18:50:37.306Z,2.00
2022-11-30T18:53:04.730Z,2.10
2022-11-30T18:55:31.545Z,2.20
2022-11-30T18:57:58.152Z,2.20
2022-11-30T19:00:24.707Z,2.30
2022-11-30T19:02:51.422Z,2.30
2022-11-30T19:05:34.796Z,2.40
2022-11-30T19:08:05.583Z,2.50
2022-11-30T19:10:36.268Z,2.50
2022-11-30T19:13:04.182Z,2.60
2022-11-30T19:15:31.416Z,2.60
2022-11-30T19:17:57.977Z,2.70
2022-11-30T19:20:24.521Z,2.80
2022-11-30T19:22:51.086Z,2.80
2022-11-30T19:25:19.205Z,2.90
2022-11-30T19:27:46.071Z,2.90
2022-11-30T19:30:12.969Z,3.00
2022-11-30T19:32:39.722Z,3.00
2022-11-30T19:35:06.525Z,3.00
2022-11-30T19:37:33.080Z,3.10
2022-11-30T19:39:59.694Z,3.10
2022-11-30T19:42:26.287Z,3.10
2022-11-30T19:44:52.814Z,3.10
2022-11-30T19:47:19.390Z,3.10
2022-11-30T19:49:45.941Z,3.10
2022-11-30T19:52:12.458Z,3.10
2022-11-30T19:54:38.983Z,3.10
2022-11-30T19:57:05.651Z,3.10
2022-11-30T19:59:32.166Z,3.10
2022-11-30T20:01:58.713Z,3.10
2022-11-30T20:04:25.502Z,3.10
2022-11-30T20:06:52.123Z,3.20
2022-11-30T20:09:18.645Z,3.20
2022-11-30T20:11:45.157Z,3.20
2022-11-30T20:14:14.891Z,3.20
2022-11-30T20:16:41.418Z,3.20
2022-11-30T20:19:08.110Z,3.20
2022-11-30T20:21:35.310Z,3.20
2022-11-30T20:24:04.336Z,3.30
2022-11-30T20:26:32.178Z,3.30
2022-11-30T20:29:00.701Z,3.30
2022-11-30T20:31:28.279Z,3.20
2022-11-30T20:33:55.151Z,3.20
2022-11-30T20:36:22.323Z,3.20
2022-11-30T20:38:48.890Z,3.30
2022-11-30T20:41:17.274Z,3.30
2022-11-30T20:43:43.872Z,3.30
2022-11-30T20:46:21.101Z,3.30
2022-11-30T20:48:48.009Z,3.40
2022-11-30T20:51:32.808Z,3.40
2022-11-30T20:54:00.827Z,3.30
2022-11-30T20:56:27.711Z,3.40
2022-11-30T20:58:54.283Z,3.40
2022-11-30T21:01:22.007Z,3.40
2022-11-30T21:03:48.615Z,3.40
2022-11-30T21:06:15.343Z,3.40
2022-11-30T21:08:42.192Z,3.40
2022-11-30T21:11:12.902Z,3.30
2022-11-30T21:13:40.484Z,3.30
2022-11-30T21:16:08.576Z,3.40
2022-11-30T21:18:36.285Z,3.40
2022-11-30T21:21:03.604Z,3.40
2022-11-30T21:23:30.627Z,3.40
2022-11-30T21:26:03.681Z,3.30
2022-11-30T21:28:36.358Z,3.30
2022-11-30T21:31:04.790Z,3.30
2022-11-30T21:33:31.607Z,3.30
2022-11-30T21:35:58.279Z,3.30
2022-11-30T21:38:25.155Z,3.40
2022-11-30T21:40:58.317Z,3.40
2022-11-30T21:43:25.568Z,3.40
2022-11-30T21:45:59.352Z,3.40
2022-11-30T21:48:44.304Z,3.40
2022-11-30T21:54:28.504Z,3.50
2022-11-30T21:56:55.060Z,3.50
2022-11-30T21:59:21.637Z,3.50
2022-11-30T22:01:48.230Z,3.50
2022-11-30T22:04:15.313Z,3.50
2022-11-30T22:06:42.415Z,3.50
2022-11-30T22:09:13.695Z,3.50
2022-11-30T22:11:40.907Z,3.60
2022-11-30T22:14:10.214Z,3.50
2022-11-30T22:16:36.980Z,3.50
2022-11-30T22:19:04.383Z,3.50
2022-11-30T22:21:31.505Z,3.50
2022-11-30T22:24:02.763Z,3.50
2022-11-30T22:26:31.080Z,3.50
2022-11-30T22:28:58.797Z,3.60
2022-11-30T22:31:27.376Z,3.70
2022-11-30T22:33:55.199Z,3.70
2022-11-30T22:36:22.756Z,3.60
2022-11-30T22:38:53.522Z,3.60
2022-11-30T22:41:20.592Z,3.60
2022-11-30T22:43:47.437Z,3.60
2022-11-30T22:46:17.962Z,3.60
2022-11-30T22:48:45.358Z,3.50
2022-11-30T22:51:12.975Z,3.60
2022-11-30T22:53:39.653Z,3.60
2022-11-30T22:56:26.722Z,3.60
2022-11-30T22:58:54.623Z,3.60
2022-11-30T23:01:22.680Z,3.70
2022-11-30T23:03:50.009Z,3.70
2022-11-30T23:06:18.113Z,3.70
2022-11-30T23:08:45.023Z,3.70
2022-11-30T23:11:13.789Z,3.70
2022-11-30T23:13:41.487Z,3.60
2022-11-30T23:16:09.008Z,3.70
2022-11-30T23:18:39.839Z,3.70
2022-11-30T23:21:07.868Z,3.60
2022-11-30T23:23:34.609Z,3.70
2022-11-30T23:26:11.805Z,3.70
2022-11-30T23:28:40.969Z,3.80
2022-11-30T23:31:08.571Z,3.80
2022-11-30T23:33:35.286Z,3.80
2022-11-30T23:36:01.822Z,3.70
2022-11-30T23:38:28.727Z,3.70
2022-11-30T23:40:55.304Z,3.60
2022-11-30T23:43:21.903Z,3.70
2022-11-30T23:45:48.454Z,3.70
2022-11-30T23:48:15.015Z,3.60
2022-11-30T23:50:41.528Z,3.60
2022-11-30T23:53:08.077Z,3.60
2022-11-30T23:55:34.662Z,3.60
2022-11-30T23:58:01.607Z,3.60
